Time;durP1;ratioP1;P1;durP2;ratioP2;P2;SDS_P1;SDS_P2;PMS_P1;PMS_P2;Temp;Humidity;BMP_temperature;BMP_pressure;BME280_temperature;BME280_humidity;BME280_pressure;Samples;Min_cycle;Max_cycle;Signal;HPM_P1;HPM_P2
2022/01/27 00:00:43;;;;;;;96.88;35.58;;;;;;;3.13;100.00;101982.00;4969155;28;20070;-70
2022/01/27 00:03:26;;;;;;;;;;;;;;;2.90;100.00;101966.84;4977835;28;20043;-69
2022/01/27 00:06:02;;;;;;;82.15;33.30;;;;;;;2.85;100.00;101969.28;4977695;28;19927;-69
2022/01/27 00:08:39;;;;;;;94.97;35.78;;;;;;;2.75;100.00;101971.47;4978006;28;20047;-70
2022/01/27 00:11:15;;;;;;;85.90;33.30;;;;;;;2.79;100.00;101972.75;4977086;28;20398;-69
2022/01/27 00:13:47;;;;;;;91.80;35.35;;;;;;;3.00;100.00;101969.22;4977479;28;20050;-69
2022/01/27 00:16:24;;;;;;;94.53;34.63;;;;;;;3.02;100.00;101966.28;4949023;28;20035;-69
2022/01/27 00:18:53;;;;;;;88.57;32.55;;;;;;;2.91;100.00;101971.22;4964150;28;20395;-69
2022/01/27 00:21:24;;;;;;;92.80;35.78;;;;;;;3.01;100.00;101972.72;4975395;28;20478;-69
2022/01/27 00:23:53;;;;;;;83.15;33.75;;;;;;;3.09;100.00;101973.44;4969202;28;20051;-70
2022/01/27 00:26:22;;;;;;;86.18;36.55;;;;;;;2.99;100.00;101972.94;4974534;28;20043;-69
2022/01/27 00:28:50;;;;;;;90.13;34.60;;;;;;;2.84;100.00;101969.47;4977079;28;20047;-69
2022/01/27 00:31:20;;;;;;;87.72;33.55;;;;;;;2.88;100.00;101966.19;4969490;28;20055;-69
2022/01/27 00:33:50;;;;;;;81.47;33.58;;;;;;;2.95;100.00;101979.78;4977290;28;20515;-69
2022/01/27 00:36:18;;;;;;;88.20;36.63;;;;;;;2.97;100.00;101983.09;4976724;28;20115;-70
2022/01/27 00:38:49;;;;;;;91.53;36.03;;;;;;;3.07;100.00;101971.94;4973474;28;20050;-70
2022/01/27 00:41:19;;;;;;;89.10;35.25;;;;;;;3.21;100.00;101972.91;4976692;28;20047;-69
2022/01/27 00:43:49;;;;;;;84.88;32.92;;;;;;;3.12;100.00;101974.91;4973604;28;20035;-69
2022/01/27 00:46:18;;;;;;;88.53;34.85;;;;;;;3.17;100.00;101972.47;4950741;28;20075;-69
2022/01/27 00:48:48;;;;;;;85.60;33.05;;;;;;;3.05;100.00;101971.31;4956114;28;20038;-69
2022/01/27 00:51:22;;;;;;;78.43;32.42;;;;;;;3.07;100.00;101975.50;4962749;28;20051;-69
2022/01/27 00:54:04;;;;;;;86.30;32.17;;;;;;;2.98;100.00;101976.66;4976489;28;20375;-70
2022/01/27 00:56:50;;;;;;;82.50;33.53;;;;;;;3.07;100.00;101963.84;4976543;28;20054;-69
2022/01/27 01:04:45;;;;;;;86.90;32.78;;;;;;;2.83;100.00;101979.44;4977175;28;20046;-69
2022/01/27 01:07:15;;;;;;;82.93;31.45;;;;;;;2.72;100.00;101972.69;4967695;28;20043;-70
2022/01/27 01:33:58;;;;;;;85.55;34.35;;;;;;;2.65;100.00;101953.69;4973903;28;20042;-70
2022/01/27 01:36:36;;;;;;;89.50;32.92;;;;;;;2.67;100.00;101943.53;4977632;28;20047;-71
2022/01/27 01:39:05;;;;;;;90.38;34.67;;;;;;;2.64;100.00;101943.09;4977096;28;20050;-70
2022/01/27 01:41:33;;;;;;;81.03;33.28;;;;;;;2.61;100.00;101944.31;4976878;28;20046;-70
2022/01/27 01:44:01;;;;;;;92.68;34.42;;;;;;;2.60;100.00;101939.94;4977627;28;20050;-70
2022/01/27 01:46:29;;;;;;;88.35;35.40;;;;;;;2.66;100.00;101939.16;4976331;28;20055;-70
2022/01/27 01:48:57;;;;;;;80.88;33.53;;;;;;;2.65;100.00;101929.34;4977590;28;20039;-70
2022/01/27 01:51:28;;;;;;;84.20;32.28;;;;;;;2.54;100.00;101936.13;4976788;28;20410;-70
2022/01/27 01:53:56;;;;;;;95.55;33.80;;;;;;;2.59;100.00;101921.22;4949965;28;20475;-70
2022/01/27 01:56:25;;;;;;;92.13;33.65;;;;;;;2.62;100.00;101910.84;4976546;28;20054;-70
2022/01/27 01:58:53;;;;;;;86.35;34.45;;;;;;;2.65;100.00;101913.13;4972311;28;20048;-70
2022/01/27 02:01:22;;;;;;;86.95;34.08;;;;;;;2.60;100.00;101918.31;4968906;28;20053;-70
2022/01/27 02:03:50;;;;;;;76.30;32.90;;;;;;;2.67;100.00;101927.31;4977474;28;20062;-70
2022/01/27 02:06:32;;;;;;;84.13;33.00;;;;;;;2.76;100.00;101919.06;4977288;28;20039;-70
2022/01/27 02:19:51;;;;;;;84.35;33.63;;;;;;;2.63;100.00;101888.19;4962996;28;20039;-70
2022/01/27 02:22:20;;;;;;;96.63;35.67;;;;;;;2.60;100.00;101883.19;4976595;28;20046;-71
2022/01/27 02:24:49;;;;;;;94.28;36.08;;;;;;;2.57;100.00;101890.81;4976759;28;20062;-71
2022/01/27 02:27:19;;;;;;;83.10;33.13;;;;;;;2.57;100.00;101888.97;4977334;28;20053;-71
2022/01/27 02:29:48;;;;;;;82.03;32.95;;;;;;;2.54;100.00;101887.47;4972835;28;20047;-70
2022/01/27 02:32:19;;;;;;;88.53;34.47;;;;;;;2.57;100.00;101882.69;4976960;28;20075;-71
2022/01/27 02:34:47;;;;;;;87.07;34.90;;;;;;;2.55;100.00;101882.91;4976754;28;20063;-70
2022/01/27 02:37:15;;;;;;;85.82;35.10;;;;;;;2.57;100.00;101880.84;4976743;28;20050;-70
2022/01/27 02:39:43;;;;;;;84.40;34.78;;;;;;;2.67;100.00;101883.22;4977110;28;20051;-70
2022/01/27 02:42:33;;;;;;;82.78;34.65;;;;;;;2.90;100.00;101880.31;4976787;28;20082;-71
2022/01/27 02:45:07;;;;;;;82.30;33.38;;;;;;;2.73;100.00;101877.03;4977624;28;20058;-70
2022/01/27 02:47:36;;;;;;;86.30;33.17;;;;;;;2.74;100.00;101878.69;4977151;28;20043;-70
2022/01/27 02:50:06;;;;;;;87.15;32.90;;;;;;;2.82;100.00;101870.47;4977514;28;20135;-70
2022/01/27 02:52:34;;;;;;;83.82;33.63;;;;;;;2.80;100.00;101867.09;4971577;28;20050;-70
2022/01/27 02:55:02;;;;;;;91.18;34.30;;;;;;;2.70;100.00;101863.91;4975985;28;20055;-70
2022/01/27 02:57:31;;;;;;;84.72;33.25;;;;;;;2.68;100.00;101858.72;4975705;28;20501;-70
2022/01/27 02:59:59;;;;;;;85.80;34.78;;;;;;;2.72;100.00;101861.00;4973528;28;20043;-70
2022/01/27 03:02:27;;;;;;;86.80;35.83;;;;;;;2.73;100.00;101862.69;4973394;28;20525;-70
2022/01/27 03:04:55;;;;;;;85.97;35.28;;;;;;;2.71;100.00;101856.63;4973516;28;20405;-70
2022/01/27 03:07:24;;;;;;;96.45;35.40;;;;;;;2.71;100.00;101857.47;4973291;28;20043;-70
2022/01/27 03:09:54;;;;;;;84.65;33.08;;;;;;;2.82;100.00;101865.06;4973249;28;20043;-70
2022/01/27 03:12:27;;;;;;;78.55;32.78;;;;;;;2.97;100.00;101863.28;4973316;28;20051;-70
2022/01/27 03:14:55;;;;;;;79.33;31.20;;;;;;;2.85;100.00;101858.44;4973471;28;20054;-70
2022/01/27 03:17:23;;;;;;;90.20;34.42;;;;;;;2.80;100.00;101860.88;4973186;28;20047;-70
2022/01/27 03:19:51;;;;;;;87.28;35.38;;;;;;;2.76;100.00;101867.69;4973093;28;20398;-70
2022/01/27 03:22:19;;;;;;;84.45;32.72;;;;;;;2.84;100.00;101862.16;4973382;28;20046;-70
2022/01/27 03:24:47;;;;;;;89.07;32.78;;;;;;;2.81;100.00;101862.53;4973060;28;20466;-70
2022/01/27 03:27:22;;;;;;;90.20;33.63;;;;;;;2.89;100.00;101869.69;4973228;28;20508;-71
2022/01/27 03:29:51;;;;;;;89.97;32.95;;;;;;;3.17;100.00;101866.97;4970246;28;20139;-70
2022/01/27 03:32:19;;;;;;;88.03;32.15;;;;;;;3.31;100.00;101872.44;4965843;28;20070;-71
2022/01/27 03:34:47;;;;;;;90.93;32.03;;;;;;;3.28;100.00;101867.44;4973222;28;20047;-71
2022/01/27 03:37:15;;;;;;;82.07;32.60;;;;;;;3.21;100.00;101872.81;4977130;28;20054;-70
2022/01/27 03:39:44;;;;;;;89.55;33.60;;;;;;;3.31;100.00;101883.25;4977112;28;20532;-70
2022/01/27 03:42:12;;;;;;;77.85;33.10;;;;;;;3.18;100.00;101887.56;4968875;28;20058;-70
2022/01/27 03:44:40;;;;;;;75.93;32.10;;;;;;;3.02;100.00;101888.69;4976959;28;20467;-70
2022/01/27 03:47:08;;;;;;;73.20;29.88;;;;;;;3.00;100.00;101881.81;4968282;28;20047;-70
2022/01/27 03:49:36;;;;;;;89.45;32.13;;;;;;;2.89;100.00;101875.09;4977014;28;20050;-70
2022/01/27 03:52:04;;;;;;;82.20;29.55;;;;;;;2.85;100.00;101876.50;4976851;28;20042;-70
2022/01/27 03:54:32;;;;;;;87.45;31.90;;;;;;;2.93;100.00;101879.09;4976833;28;20066;-70
2022/01/27 03:57:01;;;;;;;93.80;31.08;;;;;;;2.92;100.00;101878.22;4976707;28;20049;-70
2022/01/27 03:59:30;;;;;;;90.55;29.45;;;;;;;2.97;100.00;101866.81;4976728;28;20427;-70
2022/01/27 04:01:58;;;;;;;91.60;31.02;;;;;;;2.95;100.00;101869.72;4976591;28;20062;-70
2022/01/27 04:04:27;;;;;;;84.95;31.15;;;;;;;3.05;100.00;101863.13;4976472;28;20039;-70
2022/01/27 04:06:55;;;;;;;97.15;31.25;;;;;;;2.97;100.00;101877.63;4976492;28;20050;-70
2022/01/27 04:09:24;;;;;;;89.13;31.25;;;;;;;3.23;100.00;101882.41;4976471;28;20039;-71
2022/01/27 04:11:52;;;;;;;96.68;29.98;;;;;;;3.18;100.00;101884.84;4973422;28;20057;-70
2022/01/27 04:14:20;;;;;;;92.82;31.27;;;;;;;3.13;100.00;101876.50;4976237;28;20051;-70
2022/01/27 04:16:48;;;;;;;97.57;32.28;;;;;;;2.97;100.00;101868.69;4972979;28;20047;-70
2022/01/27 04:19:16;;;;;;;92.10;31.67;;;;;;;2.95;100.00;101866.19;4976371;28;20051;-70
2022/01/27 04:21:49;;;;;;;90.07;32.93;;;;;;;2.95;100.00;101867.00;4976498;28;20042;-71
2022/01/27 04:24:18;;;;;;;92.80;33.90;;;;;;;3.00;100.00;101866.44;4976073;28;20493;-70
2022/01/27 04:26:50;;;;;;;84.85;31.45;;;;;;;3.03;100.00;101870.63;4976214;28;20043;-70
2022/01/27 04:29:21;;;;;;;80.35;32.25;;;;;;;3.07;100.00;101871.88;4976258;28;20057;-71
2022/01/27 04:31:50;;;;;;;89.75;30.17;;;;;;;2.97;100.00;101866.81;4976122;28;20058;-70
2022/01/27 04:34:19;;;;;;;88.95;29.13;;;;;;;2.87;100.00;101866.31;4968916;28;20054;-70
2022/01/27 04:36:47;;;;;;;109.22;32.95;;;;;;;2.88;100.00;101863.41;4975876;28;20054;-70
2022/01/27 04:39:24;;;;;;;112.63;32.00;;;;;;;2.91;100.00;101857.63;4976093;28;20054;-70
2022/01/27 04:41:59;;;;;;;112.57;31.50;;;;;;;2.81;100.00;101862.53;4976023;28;20062;-70
2022/01/27 04:44:35;;;;;;;114.68;31.80;;;;;;;2.82;100.00;101848.00;4976040;28;20058;-70
2022/01/27 04:47:23;;;;;;;110.32;32.83;;;;;;;2.87;100.00;101845.53;4974506;28;20050;-70
2022/01/27 04:49:51;;;;;;;114.18;31.90;;;;;;;2.76;100.00;101862.28;4975638;28;20054;-70
2022/01/27 04:52:19;;;;;;;110.90;30.42;;;;;;;2.80;100.00;101866.28;4975858;28;20051;-70
2022/01/27 04:55:00;;;;;;;100.85;29.77;;;;;;;2.78;100.00;101868.31;4975599;28;20050;-70
2022/01/27 04:57:30;;;;;;;93.50;28.73;;;;;;;2.84;100.00;101875.69;4951264;28;20421;-70
2022/01/27 04:59:59;;;;;;;88.28;32.35;;;;;;;2.87;100.00;101875.28;4975514;28;20520;-70
2022/01/27 05:02:55;;;;;;;89.65;29.92;;;;;;;2.87;100.00;101867.16;4954661;28;20047;-70
2022/01/27 05:05:21;;;;;;;102.30;32.25;;;;;;;2.87;100.00;101872.56;4950053;29;20051;-71
2022/01/27 05:08:01;;;;;;;86.38;29.70;;;;;;;3.19;100.00;101878.41;4955857;29;20054;-70
2022/01/27 05:10:33;;;;;;;98.68;31.27;;;;;;;2.99;100.00;101885.56;4948982;29;20051;-70
2022/01/27 05:13:12;;;;;;;91.43;30.05;;;;;;;2.81;100.00;101886.88;4955831;29;20082;-70
2022/01/27 05:15:45;;;;;;;94.68;30.40;;;;;;;2.78;100.00;101881.84;4951758;29;20051;-71
2022/01/27 05:18:15;;;;;;;95.13;30.23;;;;;;;2.86;100.00;101880.88;4956102;29;20402;-70
2022/01/27 05:20:44;;;;;;;110.90;34.60;;;;;;;2.75;100.00;101885.81;4956052;29;20051;-70
2022/01/27 05:23:12;;;;;;;85.30;29.20;;;;;;;2.71;100.00;101878.25;4955742;29;20044;-71
2022/01/27 05:25:40;;;;;;;88.45;33.40;;;;;;;2.73;100.00;101893.25;4955957;29;20055;-70
2022/01/27 05:28:08;;;;;;;91.45;29.45;;;;;;;2.89;100.00;101892.13;4955711;29;20490;-70
2022/01/27 05:30:36;;;;;;;108.20;31.67;;;;;;;2.81;100.00;101884.16;4951560;29;20051;-70
2022/01/27 05:33:04;;;;;;;78.65;30.42;;;;;;;2.76;100.00;101881.22;4955453;29;20054;-70
2022/01/27 05:35:32;;;;;;;90.90;29.08;;;;;;;2.77;100.00;101880.19;4955822;29;20039;-71
2022/01/27 05:38:01;;;;;;;98.00;31.63;;;;;;;2.71;100.00;101889.06;4955604;29;20055;-71
2022/01/27 05:40:29;;;;;;;90.40;29.38;;;;;;;2.72;100.00;101885.31;4948817;29;20051;-71
2022/01/27 05:42:57;;;;;;;90.15;29.83;;;;;;;2.74;100.00;101886.00;4952250;29;20043;-71
2022/01/27 05:45:26;;;;;;;90.45;32.40;;;;;;;2.86;100.00;101881.72;4955342;29;20043;-71
2022/01/27 05:47:53;;;;;;;92.65;30.13;;;;;;;2.92;100.00;101880.94;4955489;29;20486;-70
2022/01/27 05:50:22;;;;;;;108.15;33.40;;;;;;;2.93;100.00;101895.31;4955186;29;20482;-70
2022/01/27 05:52:49;;;;;;;102.40;32.40;;;;;;;3.06;100.00;101900.81;4941587;29;20058;-70
2022/01/27 05:55:18;;;;;;;89.95;28.10;;;;;;;3.03;100.00;101893.06;4952644;29;20406;-71
2022/01/27 05:57:47;;;;;;;92.28;30.50;;;;;;;3.15;100.00;101901.50;4955247;28;20043;-70
2022/01/27 06:00:16;;;;;;;100.90;29.33;;;;;;;3.19;100.00;101913.56;4947319;29;20054;-70
2022/01/27 06:02:44;;;;;;;90.07;29.95;;;;;;;3.18;100.00;101917.31;4967833;28;20043;-70
2022/01/27 06:05:12;;;;;;;101.32;30.17;;;;;;;2.97;100.00;101910.09;4949195;28;20486;-70
2022/01/27 06:07:40;;;;;;;89.88;31.63;;;;;;;3.03;100.00;101919.31;4970975;28;20054;-70
2022/01/27 06:10:08;;;;;;;81.65;28.77;;;;;;;3.05;100.00;101911.81;4974216;28;20055;-70
2022/01/27 06:12:51;;;;;;;84.53;29.27;;;;;;;2.87;100.00;101915.84;4973137;28;20055;-70
2022/01/27 06:15:20;;;;;;;88.22;29.73;;;;;;;2.92;100.00;101912.53;4973101;28;20050;-70
2022/01/27 06:17:48;;;;;;;102.00;29.63;;;;;;;2.74;100.00;101907.63;4973326;28;20375;-70
2022/01/27 06:20:18;;;;;;;91.05;29.10;;;;;;;2.62;100.00;101902.72;4967097;28;20047;-70
2022/01/27 06:22:46;;;;;;;95.28;30.23;;;;;;;2.67;100.00;101899.44;4960093;28;20047;-70
2022/01/27 06:25:18;;;;;;;93.53;32.58;;;;;;;2.64;100.00;101910.66;4959245;28;20051;-70
2022/01/27 06:27:46;;;;;;;94.35;30.02;;;;;;;2.59;100.00;101913.91;4956518;28;20046;-70
2022/01/27 06:30:14;;;;;;;94.95;31.48;;;;;;;2.61;100.00;101922.69;4952254;29;20050;-71
2022/01/27 06:32:43;;;;;;;89.20;30.50;;;;;;;2.87;100.00;101928.50;4952691;29;20055;-70
2022/01/27 06:35:15;;;;;;;84.35;32.08;;;;;;;3.04;100.00;101937.19;4944754;29;20394;-71
2022/01/27 06:37:45;;;;;;;89.25;29.60;;;;;;;2.95;100.00;101939.22;4942802;29;20044;-70
2022/01/27 06:40:15;;;;;;;93.22;29.52;;;;;;;2.84;100.00;101940.56;4939072;29;20043;-70
2022/01/27 06:42:43;;;;;;;80.97;29.85;;;;;;;3.00;100.00;101942.16;4936090;29;20039;-70
2022/01/27 06:45:11;;;;;;;79.00;30.30;;;;;;;2.88;100.00;101932.91;4936677;29;20052;-70
2022/01/27 06:47:39;;;;;;;103.18;33.22;;;;;;;2.76;100.00;101948.81;4941083;29;20112;-70
2022/01/27 06:50:11;;;;;;;110.78;32.63;;;;;;;2.71;100.00;101960.22;4945669;29;20039;-70
2022/01/27 06:52:41;;;;;;;103.20;31.13;;;;;;;2.71;100.00;101965.63;4945692;29;20552;-70
2022/01/27 06:55:12;;;;;;;89.43;30.50;;;;;;;2.65;100.00;101971.78;4935737;29;20055;-69
2022/01/27 06:57:41;;;;;;;104.22;32.60;;;;;;;2.65;100.00;101967.19;4937401;28;20039;-69
2022/01/27 07:00:10;;;;;;;95.85;30.02;;;;;;;2.79;100.00;101961.94;4947115;29;20119;-70
2022/01/27 07:02:38;;;;;;;92.50;30.95;;;;;;;2.79;100.00;101967.34;4938309;28;20044;-69
2022/01/27 07:05:07;;;;;;;111.88;33.22;;;;;;;2.77;100.00;101972.09;4941229;29;20480;-69
2022/01/27 07:07:36;;;;;;;110.45;32.47;;;;;;;2.68;100.00;101969.53;4943464;29;20059;-69
2022/01/27 07:10:04;;;;;;;95.68;30.77;;;;;;;2.82;100.00;101973.22;4940158;29;20328;-70
2022/01/27 07:12:33;;;;;;;91.95;29.38;;;;;;;2.75;100.00;101966.06;4947854;29;20043;-68
2022/01/27 07:15:01;;;;;;;100.35;30.20;;;;;;;2.65;100.00;101967.19;4945256;29;20051;-70
2022/01/27 07:17:29;;;;;;;116.97;32.05;;;;;;;2.62;100.00;101967.59;4943150;29;20047;-68
2022/01/27 07:19:57;;;;;;;109.47;31.63;;;;;;;2.54;100.00;101959.63;4947449;29;20046;-69
2022/01/27 07:22:26;;;;;;;111.15;30.40;;;;;;;2.66;100.00;101966.19;4943333;29;20043;-69
2022/01/27 07:24:58;;;;;;;103.07;29.98;;;;;;;2.62;100.00;101975.72;4948573;29;20043;-69
2022/01/27 07:27:26;;;;;;;87.97;31.02;;;;;;;2.57;100.00;101978.16;4946457;29;20047;-69
2022/01/27 07:29:54;;;;;;;106.00;30.98;;;;;;;2.57;100.00;101988.09;4941275;29;20047;-69
2022/01/27 07:32:23;;;;;;;106.32;32.47;;;;;;;2.57;100.00;101980.00;4906362;29;20052;-70
2022/01/27 07:34:52;;;;;;;100.13;29.52;;;;;;;2.74;100.00;101986.03;4912089;29;20063;-70
2022/01/27 07:37:20;;;;;;;99.95;29.65;;;;;;;2.82;100.00;101977.75;4909934;29;20043;-70
2022/01/27 07:39:48;;;;;;;97.43;30.27;;;;;;;2.98;100.00;101979.38;4947308;29;20055;-69
2022/01/27 07:42:16;;;;;;;95.55;31.52;;;;;;;3.09;100.00;101986.13;4941528;29;20502;-70
2022/01/27 07:44:44;;;;;;;109.25;31.42;;;;;;;3.12;100.00;101993.84;4933700;29;20396;-69
2022/01/27 07:47:13;;;;;;;108.88;30.70;;;;;;;3.34;100.00;101993.81;4940445;29;20384;-70
2022/01/27 07:49:42;;;;;;;102.57;30.20;;;;;;;3.29;100.00;101993.56;4935687;29;20044;-69
2022/01/27 07:52:12;;;;;;;102.35;30.83;;;;;;;3.29;100.00;102007.09;4948293;29;20044;-69
2022/01/27 07:54:40;;;;;;;111.57;32.63;;;;;;;3.33;100.00;102011.09;4947318;29;20055;-69
2022/01/27 07:57:08;;;;;;;92.40;29.95;;;;;;;3.09;100.00;102018.59;4943603;29;20055;-70
2022/01/27 07:59:36;;;;;;;105.13;29.83;;;;;;;2.88;100.00;102020.25;4935689;29;20376;-70
2022/01/27 08:02:05;;;;;;;84.78;28.23;;;;;;;2.91;100.00;102017.19;4934550;28;20410;-68
2022/01/27 08:04:34;;;;;;;110.35;30.45;;;;;;;2.91;100.00;102019.88;4939569;29;20055;-70
2022/01/27 08:07:02;;;;;;;96.32;29.92;;;;;;;3.04;100.00;102018.34;4941627;29;20050;-69
2022/01/27 08:09:31;;;;;;;85.63;28.38;;;;;;;3.15;100.00;102027.78;4939418;29;20043;-69
2022/01/27 08:11:59;;;;;;;96.10;29.65;;;;;;;3.21;100.00;102025.16;4944436;29;20541;-69
2022/01/27 08:14:27;;;;;;;82.80;28.58;;;;;;;3.36;100.00;102021.53;4930837;29;20047;-68
2022/01/27 08:16:55;;;;;;;100.45;30.73;;;;;;;3.25;100.00;102031.00;4932181;29;20044;-69
2022/01/27 08:19:24;;;;;;;103.95;29.35;;;;;;;3.16;100.00;102034.88;4941927;28;20048;-69
2022/01/27 08:21:55;;;;;;;98.45;30.15;;;;;;;3.26;100.00;102029.97;4936838;29;20052;-69
2022/01/27 08:24:23;;;;;;;87.38;30.15;;;;;;;3.21;100.00;102027.88;4939523;29;20043;-69
2022/01/27 08:26:58;;;;;;;79.85;28.00;;;;;;;3.39;100.00;102048.22;4938377;29;20052;-69
2022/01/27 08:29:34;;;;;;;106.50;31.52;;;;;;;3.40;100.00;102043.59;4930655;29;20040;-69
2022/01/27 08:32:30;;;;;;;92.43;30.42;;;;;;;3.30;100.00;102025.84;4943901;29;20051;-69
2022/01/27 08:34:59;;;;;;;81.88;29.10;;;;;;;3.29;100.00;102036.88;4935126;29;20048;-69
2022/01/27 08:37:28;;;;;;;93.18;32.08;;;;;;;3.33;100.00;102022.75;4936019;29;20491;-69
2022/01/27 08:39:56;;;;;;;93.38;33.38;;;;;;;3.54;100.00;102025.63;4941807;29;20074;-69
2022/01/27 08:42:24;;;;;;;82.82;30.58;;;;;;;3.46;100.00;102023.88;4937621;29;20681;-69
2022/01/27 08:44:52;;;;;;;82.80;31.60;;;;;;;3.52;100.00;102023.09;4939503;29;20051;-68
2022/01/27 08:47:21;;;;;;;84.13;32.45;;;;;;;3.38;100.00;102019.47;4929904;29;20047;-69
2022/01/27 08:49:49;;;;;;;83.03;31.48;;;;;;;3.31;100.00;102026.69;4936340;29;20048;-69
2022/01/27 08:52:18;;;;;;;77.75;31.83;;;;;;;3.50;100.00;102027.88;4945702;29;20044;-69
2022/01/27 08:54:46;;;;;;;84.90;30.35;;;;;;;3.56;100.00;102031.69;4935462;29;20054;-70
2022/01/27 08:57:15;;;;;;;80.35;31.38;;;;;;;3.61;100.00;102023.78;4940151;29;20565;-70
2022/01/27 08:59:43;;;;;;;89.07;31.88;;;;;;;3.56;100.00;102026.28;4937058;29;20040;-68
2022/01/27 09:02:12;;;;;;;83.38;33.22;;;;;;;3.65;100.00;102013.41;4937634;28;20056;-70
2022/01/27 09:04:40;;;;;;;79.57;31.77;;;;;;;3.44;100.00;102007.00;4941980;29;20050;-68
2022/01/27 09:07:08;;;;;;;82.18;32.67;;;;;;;3.47;100.00;102012.03;4944563;29;20407;-69
2022/01/27 09:09:36;;;;;;;76.32;32.55;;;;;;;3.58;100.00;102008.78;4938833;29;20050;-69
2022/01/27 09:12:05;;;;;;;78.13;32.22;;;;;;;3.39;100.00;102017.59;4935112;29;20406;-69
2022/01/27 09:14:34;;;;;;;92.50;32.35;;;;;;;3.37;100.00;102020.47;4951648;29;20051;-68
2022/01/27 09:17:02;;;;;;;83.35;34.58;;;;;;;3.38;100.00;102011.34;4947108;29;20042;-68
2022/01/27 09:19:32;;;;;;;73.25;31.73;;;;;;;3.57;100.00;102014.41;4941331;29;20408;-69
2022/01/27 09:22:06;;;;;;;77.15;31.27;;;;;;;3.54;100.00;102012.94;4949643;29;20047;-69
2022/01/27 09:24:48;;;;;;;89.43;33.33;;;;;;;3.52;100.00;102014.97;4943081;29;20047;-69
2022/01/27 09:27:16;;;;;;;90.68;33.17;;;;;;;3.81;100.00;102009.56;4938104;29;20514;-69
2022/01/27 09:29:47;;;;;;;85.53;31.55;;;;;;;3.68;100.00;102008.44;4951292;29;20768;-69
2022/01/27 09:32:17;;;;;;;84.82;32.33;;;;;;;3.80;100.00;102014.13;4945756;29;20071;-69
2022/01/27 09:34:46;;;;;;;77.68;30.55;;;;;;;3.79;100.00;101998.91;4946652;29;20098;-69
2022/01/27 09:37:14;;;;;;;83.55;31.00;;;;;;;3.89;100.00;102012.09;4955089;29;20044;-70
2022/01/27 09:39:43;;;;;;;91.00;32.47;;;;;;;4.01;100.00;102020.50;4950672;29;20050;-70
2022/01/27 09:42:12;;;;;;;77.80;32.00;;;;;;;4.24;99.81;102017.47;4955169;29;20047;-70
2022/01/27 09:44:44;;;;;;;77.50;31.33;;;;;;;4.13;100.00;102021.63;4954195;29;20041;-68
2022/01/27 09:47:15;;;;;;;81.43;31.02;;;;;;;4.22;100.00;102022.28;4954915;29;20058;-68
2022/01/27 09:49:52;;;;;;;86.22;30.25;;;;;;;4.57;97.87;102030.34;4954682;29;20487;-69
2022/01/27 09:52:20;;;;;;;89.43;29.38;;;;;;;4.75;97.25;102017.25;4955202;29;20050;-69
2022/01/27 09:54:49;;;;;;;93.78;30.80;;;;;;;4.63;97.75;102015.13;4954131;29;20054;-68
2022/01/27 09:57:17;;;;;;;84.28;29.17;;;;;;;4.49;98.45;102011.53;4955115;29;20406;-69
2022/01/27 09:59:46;;;;;;;100.53;31.90;;;;;;;4.39;98.94;102016.50;4953968;29;20400;-70
2022/01/27 10:02:21;;;;;;;77.70;28.98;;;;;;;4.06;100.00;102030.75;4961666;28;20058;-68
2022/01/27 10:04:57;;;;;;;90.75;31.27;;;;;;;4.44;98.58;102033.00;4973005;28;20051;-69
2022/01/27 10:07:35;;;;;;;92.30;30.75;;;;;;;4.11;100.00;102033.69;4973329;28;20057;-69
2022/01/27 10:10:10;;;;;;;87.43;30.90;;;;;;;4.22;100.00;102041.25;4965285;28;20067;-69
2022/01/27 10:12:45;;;;;;;83.47;28.77;;;;;;;4.26;98.76;102037.09;4973904;28;20055;-69
2022/01/27 10:15:20;;;;;;;77.38;30.38;;;;;;;4.20;98.10;102034.34;4972870;28;20062;-71
2022/01/27 10:18:06;;;;;;;82.78;32.05;;;;;;;4.34;99.15;102024.41;4936481;28;20055;-69
2022/01/27 10:20:41;;;;;;;77.90;28.38;;;;;;;4.56;97.76;102015.09;4927826;29;20514;-69
2022/01/27 10:23:24;;;;;;;83.72;30.83;;;;;;;4.65;95.89;102007.59;4963767;28;20375;-69
2022/01/27 10:25:59;;;;;;;84.57;31.08;;;;;;;5.03;95.86;102019.78;4954996;28;20066;-69
2022/01/27 10:28:36;;;;;;;81.93;30.67;;;;;;;5.23;93.46;102024.41;4972090;28;20516;-69
2022/01/27 10:31:06;;;;;;;79.82;30.45;;;;;;;5.44;92.34;102014.38;4964080;28;20058;-69
2022/01/27 10:33:52;;;;;;;77.70;30.30;;;;;;;5.60;90.29;102013.09;4954291;28;20047;-69
2022/01/27 10:36:26;;;;;;;82.93;31.80;;;;;;;5.59;90.93;102006.84;4929690;29;20044;-69
2022/01/27 10:39:00;;;;;;;96.07;32.28;;;;;;;5.48;91.37;102005.59;4944813;29;20055;-70
2022/01/27 10:41:32;;;;;;;86.03;30.95;;;;;;;5.37;92.44;101998.91;4947106;28;20062;-69
2022/01/27 10:44:16;;;;;;;79.53;31.05;;;;;;;5.56;91.27;101990.13;4938821;28;20411;-70
2022/01/27 10:47:11;;;;;;;85.90;31.45;;;;;;;5.47;90.44;101981.38;4914560;29;20047;-69
2022/01/27 10:49:48;;;;;;;78.20;29.52;;;;;;;5.58;90.13;101983.44;4938355;28;20059;-68
2022/01/27 10:53:05;;;;;;;85.00;31.30;;;;;;;5.89;90.72;101987.34;4933660;29;20062;-69
2022/01/27 10:55:20;;;;;;;76.78;29.65;;;;;;;6.50;87.23;101983.56;4939952;29;20068;-68
2022/01/27 10:57:51;;;;;;;86.07;30.35;;;;;;;6.78;86.46;101974.16;4916944;29;20039;-69
2022/01/27 11:00:22;;;;;;;82.80;31.08;;;;;;;6.89;83.47;101978.91;4949688;29;20039;-69
2022/01/27 11:02:51;;;;;;;78.47;30.75;;;;;;;7.18;82.02;101967.63;4935888;28;20052;-68
2022/01/27 11:05:22;;;;;;;85.03;30.75;;;;;;;7.46;79.68;101953.50;4941561;29;20043;-68
2022/01/27 11:07:51;;;;;;;80.35;29.20;;;;;;;7.88;78.00;101958.28;4941491;29;20498;-69
2022/01/27 11:10:23;;;;;;;74.93;31.15;;;;;;;7.63;78.96;101959.19;4938168;29;20039;-69
2022/01/27 11:12:53;;;;;;;79.53;29.27;;;;;;;7.18;80.41;101941.19;4942480;29;20046;-68
2022/01/27 11:15:21;;;;;;;79.28;29.25;;;;;;;6.87;82.38;101940.22;4939209;29;20051;-68
2022/01/27 11:17:50;;;;;;;73.53;30.67;;;;;;;6.51;82.13;101942.53;4946511;29;20490;-69
2022/01/27 11:25:54;;;;;;;81.03;31.08;;;;;;;6.36;85.50;101937.41;4935040;29;20051;-69
2022/01/27 11:28:25;;;;;;;77.30;30.80;;;;;;;6.74;83.84;101930.25;4940906;29;20044;-69
2022/01/27 11:31:44;;;;;;;82.90;29.70;;;;;;;6.74;81.58;101924.00;4936832;29;20040;-69
2022/01/27 11:34:15;;;;;;;78.10;29.88;;;;;;;7.10;80.15;101930.59;4917233;28;20509;-70
2022/01/27 11:37:01;;;;;;;76.82;31.17;;;;;;;6.78;80.11;101931.47;4952934;29;20042;-70
2022/01/27 11:39:47;;;;;;;76.35;28.73;;;;;;;6.54;81.86;101933.09;4952021;29;20043;-70
2022/01/27 11:42:20;;;;;;;89.03;31.05;;;;;;;6.67;82.11;101922.16;4933093;29;20040;-70
2022/01/27 11:44:48;;;;;;;70.78;30.27;;;;;;;6.79;81.69;101918.72;4933894;29;20099;-70
2022/01/27 11:47:59;;;;;;;75.97;29.40;;;;;;;6.84;80.98;101922.44;4949677;29;20477;-69
2022/01/27 11:50:50;;;;;;;73.88;30.15;;;;;;;7.03;80.25;101908.88;4935537;29;20048;-69
2022/01/27 11:53:40;;;;;;;78.47;29.73;;;;;;;7.28;79.97;101913.47;4946966;29;20054;-68
2022/01/27 11:56:23;;;;;;;79.63;29.63;;;;;;;6.85;82.08;101910.50;4949554;28;20097;-68
2022/01/27 11:58:54;;;;;;;76.38;29.98;;;;;;;7.03;81.07;101899.91;4951595;29;20051;-69
2022/01/27 12:01:25;;;;;;;84.07;31.45;;;;;;;6.90;82.09;101887.22;4953787;28;20043;-69
2022/01/27 12:04:07;;;;;;;84.53;32.33;;;;;;;7.03;82.96;101894.44;4952275;29;20048;-69
2022/01/27 12:06:37;;;;;;;80.88;30.67;;;;;;;7.06;81.56;101892.13;4949914;29;20070;-69
2022/01/27 12:09:20;;;;;;;81.03;31.90;;;;;;;7.14;81.50;101888.28;4947753;29;20040;-69
2022/01/27 12:12:04;;;;;;;77.57;30.13;;;;;;;7.32;80.67;101879.28;4939217;29;20427;-69
2022/01/27 12:14:38;;;;;;;90.63;31.17;;;;;;;7.21;82.04;101883.59;4937098;29;20502;-68